Time;durP1;ratioP1;P1;durP2;ratioP2;P2;SDS_P1;SDS_P2;PMS_P1;PMS_P2;Temp;Humidity;BMP_temperature;BMP_pressure;BME280_temperature;BME280_humidity;BME280_pressure;Samples;Min_cycle;Max_cycle;Signal;HPM_P1;HPM_P2
2021/08/22 00:01:14;;;;;;;6.28;5.22;;;;;;;;;;4448980;32;20749;-56
2021/08/22 00:03:39;;;;;;;9.50;4.40;;;;;;;;;;4462202;32;20337;-56
2021/08/22 00:06:05;;;;;;;10.15;5.20;;;;;;;;;;4462031;32;20596;-57
2021/08/22 00:08:31;;;;;;;6.87;5.05;;;;;;;;;;4461719;32;20363;-56
2021/08/22 00:10:56;;;;;;;9.40;5.43;;;;;;;;;;4463834;32;20227;-55
2021/08/22 00:13:22;;;;;;;5.07;4.22;;;;;;;;;;4462955;32;20238;-55
2021/08/22 00:15:48;;;;;;;6.40;4.80;;;;;;;;;;4462240;32;20366;-57
2021/08/22 00:18:14;;;;;;;8.20;5.22;;;;;;;;;;4462250;32;20216;-57
2021/08/22 00:20:40;;;;;;;5.53;4.50;;;;;;;;;;4463010;32;20340;-58
2021/08/22 00:23:05;;;;;;;6.82;4.87;;;;;;;;;;4461523;32;20255;-57
2021/08/22 00:25:32;;;;;;;6.30;4.10;;;;;;;;;;4463342;32;20279;-57
2021/08/22 00:27:57;;;;;;;5.03;4.50;;;;;;;;;;4454496;32;20259;-57
2021/08/22 00:30:23;;;;;;;6.55;4.55;;;;;;;;;;4461938;32;20290;-58
2021/08/22 00:32:48;;;;;;;6.57;5.22;;;;;;;;;;4459134;32;20487;-57
2021/08/22 00:35:14;;;;;;;5.72;4.53;;;;;;;;;;4463387;32;20208;-57
2021/08/22 00:37:41;;;;;;;9.38;4.35;;;;;;;;;;4459605;32;20307;-57
2021/08/22 00:40:06;;;;;;;5.43;4.62;;;;;;;;;;4460699;32;20328;-56
2021/08/22 00:42:36;;;;;;;5.18;4.47;;;;;;;;;;4457813;32;20283;-57
2021/08/22 00:45:03;;;;;;;7.22;5.43;;;;;;;;;;4453747;32;20248;-56
2021/08/22 00:47:30;;;;;;;8.75;5.35;;;;;;;;;;4455130;32;20318;-56
2021/08/22 00:49:56;;;;;;;8.90;5.97;;;;;;;;;;4447246;32;20527;-56
2021/08/22 00:52:22;;;;;;;7.37;5.35;;;;;;;;;;4461665;32;20247;-56
2021/08/22 00:54:48;;;;;;;6.70;4.93;;;;;;;;;;4462855;32;20258;-56
2021/08/22 00:57:14;;;;;;;7.47;5.50;;;;;;;;;;4451354;32;20228;-56
2021/08/22 00:59:40;;;;;;;7.82;5.25;;;;;;;;;;4448648;32;20278;-56
2021/08/22 01:02:12;;;;;;;6.90;5.28;;;;;;;;;;4455328;32;20327;-58
2021/08/22 01:05:18;;;;;;;8.20;5.18;;;;;;;;;;4461732;32;20300;-56
2021/08/22 01:07:54;;;;;;;6.78;5.20;;;;;;;;;;4429919;32;20619;-56
2021/08/22 01:10:25;;;;;;;6.87;6.12;;;;;;;;;;4462565;32;20626;-56
2021/08/22 01:13:07;;;;;;;12.10;6.53;;;;;;;;;;4462919;32;20217;-56
2021/08/22 01:15:41;;;;;;;11.77;7.37;;;;;;;;;;4448240;32;20252;-55
2021/08/22 01:18:11;;;;;;;10.85;6.80;;;;;;;;;;4460298;32;20197;-55
2021/08/22 01:20:49;;;;;;;14.52;8.20;;;;;;;;;;4451588;32;20317;-56
2021/08/22 01:23:15;;;;;;;10.77;7.57;;;;;;;;;;4462359;32;20216;-56
2021/08/22 01:25:42;;;;;;;8.10;5.50;;;;;;;;;;4454888;32;20722;-57
2021/08/22 01:28:08;;;;;;;8.10;4.72;;;;;;;;;;4447113;32;20242;-56
2021/08/22 01:30:55;;;;;;;13.07;9.45;;;;;;;;;;4452977;32;20219;-56
2021/08/22 01:33:21;;;;;;;13.82;10.68;;;;;;;;;;4465485;32;20208;-56
2021/08/22 01:35:47;;;;;;;34.58;23.42;;;;;;;;;;4458627;32;20682;-57
2021/08/22 01:38:15;;;;;;;38.17;28.67;;;;;;;;;;4465458;32;20264;-56
2021/08/22 01:40:42;;;;;;;21.70;19.12;;;;;;;;;;4459586;32;20314;-57
2021/08/22 01:43:10;;;;;;;21.67;16.02;;;;;;;;;;4465525;32;20213;-56
2021/08/22 01:45:37;;;;;;;10.38;7.65;;;;;;;;;;4464361;32;20607;-56
2021/08/22 01:48:05;;;;;;;10.85;6.72;;;;;;;;;;4465441;32;20306;-56
2021/08/22 01:50:30;;;;;;;7.07;6.15;;;;;;;;;;4459152;32;20216;-56
2021/08/22 01:53:00;;;;;;;7.20;5.20;;;;;;;;;;4465002;32;20216;-56
2021/08/22 01:55:26;;;;;;;7.82;4.75;;;;;;;;;;4464401;32;20234;-55
2021/08/22 01:57:51;;;;;;;8.27;5.03;;;;;;;;;;4465592;32;20395;-55
2021/08/22 02:00:17;;;;;;;7.35;5.25;;;;;;;;;;4459731;32;20218;-56
2021/08/22 02:03:02;;;;;;;6.82;5.20;;;;;;;;;;4455290;32;20313;-57
2021/08/22 02:05:29;;;;;;;6.25;5.05;;;;;;;;;;4464217;32;20291;-56
2021/08/22 02:07:55;;;;;;;4.30;3.90;;;;;;;;;;4465340;32;20278;-56
2021/08/22 02:10:26;;;;;;;4.72;4.22;;;;;;;;;;4450820;32;20640;-56
2021/08/22 02:12:57;;;;;;;6.00;4.87;;;;;;;;;;4465625;32;20315;-56
2021/08/22 02:15:25;;;;;;;5.78;4.78;;;;;;;;;;4464541;32;20292;-56
2021/08/22 02:18:04;;;;;;;7.72;4.60;;;;;;;;;;4464403;32;20248;-56
2021/08/22 02:20:29;;;;;;;8.90;5.05;;;;;;;;;;4461219;32;20305;-57
2021/08/22 02:22:56;;;;;;;4.85;4.37;;;;;;;;;;4464530;32;20284;-57
2021/08/22 02:25:22;;;;;;;6.43;4.57;;;;;;;;;;4463871;32;20612;-56
2021/08/22 02:27:47;;;;;;;6.20;4.30;;;;;;;;;;4465261;32;20324;-56
2021/08/22 02:30:14;;;;;;;5.50;4.60;;;;;;;;;;4458130;32;20224;-56
2021/08/22 02:32:40;;;;;;;6.37;4.40;;;;;;;;;;4458250;32;20374;-56
2021/08/22 02:35:06;;;;;;;5.95;4.82;;;;;;;;;;4456016;32;20303;-56
2021/08/22 02:37:31;;;;;;;6.75;5.00;;;;;;;;;;4449919;32;20302;-54
2021/08/22 02:39:57;;;;;;;6.07;5.47;;;;;;;;;;4458468;32;20315;-55
2021/08/22 02:42:23;;;;;;;13.20;8.85;;;;;;;;;;4452769;32;20352;-56
2021/08/22 02:44:49;;;;;;;11.15;6.47;;;;;;;;;;4458708;32;20225;-55
2021/08/22 02:47:15;;;;;;;9.20;6.10;;;;;;;;;;4463580;32;20227;-55
2021/08/22 02:49:41;;;;;;;9.30;5.55;;;;;;;;;;4462740;32;20344;-55
2021/08/22 02:52:07;;;;;;;6.53;4.65;;;;;;;;;;4463751;32;20227;-55
2021/08/22 02:54:33;;;;;;;6.45;5.62;;;;;;;;;;4464423;32;20327;-55
2021/08/22 02:56:58;;;;;;;7.35;5.18;;;;;;;;;;4464134;32;20275;-55
2021/08/22 02:59:24;;;;;;;5.28;4.57;;;;;;;;;;4464348;32;20259;-55
2021/08/22 03:01:49;;;;;;;6.90;4.87;;;;;;;;;;4461495;32;20271;-55
2021/08/22 03:04:15;;;;;;;7.55;4.95;;;;;;;;;;4464580;32;20216;-55
2021/08/22 03:06:40;;;;;;;8.23;5.40;;;;;;;;;;4463829;32;20283;-54
2021/08/22 03:09:05;;;;;;;9.57;5.22;;;;;;;;;;4462703;32;20264;-54
2021/08/22 03:11:32;;;;;;;8.13;5.53;;;;;;;;;;4463995;32;20339;-54
2021/08/22 03:13:58;;;;;;;7.15;4.25;;;;;;;;;;4458583;32;20303;-54
2021/08/22 03:16:24;;;;;;;8.85;5.20;;;;;;;;;;4448355;32;20235;-54
2021/08/22 03:18:49;;;;;;;7.10;5.07;;;;;;;;;;4452555;32;20299;-54
2021/08/22 03:21:15;;;;;;;6.07;4.68;;;;;;;;;;4460728;32;20208;-54
2021/08/22 03:23:40;;;;;;;8.73;5.25;;;;;;;;;;4463818;32;20228;-55
2021/08/22 03:26:06;;;;;;;7.97;6.07;;;;;;;;;;4458482;32;20359;-55
2021/08/22 03:28:31;;;;;;;7.00;5.28;;;;;;;;;;4448823;32;20216;-55
2021/08/22 03:30:57;;;;;;;14.73;5.12;;;;;;;;;;4456198;32;20608;-55
2021/08/22 03:33:22;;;;;;;7.53;5.72;;;;;;;;;;4450313;32;20744;-56
2021/08/22 03:35:48;;;;;;;7.15;5.37;;;;;;;;;;4457279;32;20322;-55
2021/08/22 03:38:14;;;;;;;9.15;5.60;;;;;;;;;;4464484;32;20208;-56
2021/08/22 03:40:40;;;;;;;5.72;4.97;;;;;;;;;;4455088;32;20652;-56
2021/08/22 03:43:05;;;;;;;7.22;5.43;;;;;;;;;;4449615;32;20240;-55
2021/08/22 03:45:31;;;;;;;9.07;5.85;;;;;;;;;;4463780;32;20220;-56
2021/08/22 03:47:56;;;;;;;9.35;6.00;;;;;;;;;;4464128;32;20321;-56
2021/08/22 03:50:22;;;;;;;7.53;5.45;;;;;;;;;;4463921;32;20275;-56
2021/08/22 03:52:48;;;;;;;8.00;6.12;;;;;;;;;;4462479;32;20288;-56
2021/08/22 03:55:15;;;;;;;5.68;5.15;;;;;;;;;;4461133;32;20284;-56
2021/08/22 03:57:40;;;;;;;6.78;5.75;;;;;;;;;;4462980;32;20615;-56
2021/08/22 04:00:06;;;;;;;8.65;5.45;;;;;;;;;;4458571;32;20267;-55
2021/08/22 04:02:32;;;;;;;7.47;5.72;;;;;;;;;;4449765;32;20303;-57
2021/08/22 04:05:00;;;;;;;8.38;6.03;;;;;;;;;;4460192;32;20213;-55
2021/08/22 04:07:25;;;;;;;7.70;5.97;;;;;;;;;;4458258;32;20581;-56
2021/08/22 04:09:50;;;;;;;11.55;5.18;;;;;;;;;;4462533;32;20255;-55
2021/08/22 04:12:16;;;;;;;7.97;5.60;;;;;;;;;;4463371;32;20280;-56
2021/08/22 04:14:41;;;;;;;7.47;5.62;;;;;;;;;;4462578;32;20372;-56
2021/08/22 04:17:07;;;;;;;8.50;6.45;;;;;;;;;;4463848;32;20304;-56
2021/08/22 04:19:32;;;;;;;8.27;6.43;;;;;;;;;;4462409;32;20216;-55
2021/08/22 04:21:58;;;;;;;9.63;5.30;;;;;;;;;;4461386;32;20224;-55
2021/08/22 04:24:24;;;;;;;6.72;5.25;;;;;;;;;;4461884;32;20612;-55
2021/08/22 04:26:49;;;;;;;7.50;5.70;;;;;;;;;;4452042;32;20817;-56
2021/08/22 04:29:15;;;;;;;7.97;5.87;;;;;;;;;;4448087;32;20213;-54
2021/08/22 04:31:41;;;;;;;7.93;5.80;;;;;;;;;;4457129;32;20200;-55
2021/08/22 04:34:07;;;;;;;5.85;5.28;;;;;;;;;;4456442;32;20231;-55
2021/08/22 04:36:32;;;;;;;10.82;5.60;;;;;;;;;;4463042;32;20327;-55
2021/08/22 04:38:58;;;;;;;12.52;6.22;;;;;;;;;;4462724;32;20626;-55
2021/08/22 04:41:23;;;;;;;7.07;5.45;;;;;;;;;;4457237;32;20283;-55
2021/08/22 04:43:52;;;;;;;6.80;5.43;;;;;;;;;;4462547;32;20307;-55
2021/08/22 04:46:18;;;;;;;6.40;5.12;;;;;;;;;;4462411;32;20607;-55
2021/08/22 04:48:44;;;;;;;7.10;5.03;;;;;;;;;;4463247;32;20232;-55
2021/08/22 04:51:10;;;;;;;6.80;5.07;;;;;;;;;;4462782;32;20283;-56
2021/08/22 04:53:35;;;;;;;10.63;5.43;;;;;;;;;;4462844;32;20235;-55
2021/08/22 04:56:02;;;;;;;7.70;5.32;;;;;;;;;;4459526;32;20219;-56
2021/08/22 04:58:27;;;;;;;7.45;5.32;;;;;;;;;;4462316;32;20242;-55
2021/08/22 05:00:53;;;;;;;7.82;5.55;;;;;;;;;;4459082;32;20291;-56
2021/08/22 05:03:18;;;;;;;8.65;4.75;;;;;;;;;;4462314;32;20288;-55
2021/08/22 05:05:43;;;;;;;6.25;4.40;;;;;;;;;;4453724;32;20306;-56
2021/08/22 05:08:09;;;;;;;8.73;5.85;;;;;;;;;;4448663;32;20241;-56
2021/08/22 05:10:38;;;;;;;4.53;4.12;;;;;;;;;;4454743;32;20272;-56
2021/08/22 05:13:03;;;;;;;7.32;3.90;;;;;;;;;;4457178;32;20311;-56
2021/08/22 05:15:29;;;;;;;5.30;4.22;;;;;;;;;;4461770;32;20754;-55
2021/08/22 05:17:54;;;;;;;11.40;3.72;;;;;;;;;;4463658;32;20332;-56
2021/08/22 05:20:20;;;;;;;5.28;3.85;;;;;;;;;;4458648;32;20259;-56
2021/08/22 05:22:46;;;;;;;7.03;4.85;;;;;;;;;;4460850;32;20212;-56
2021/08/22 05:25:11;;;;;;;5.30;4.65;;;;;;;;;;4461314;32;20203;-54
2021/08/22 05:27:37;;;;;;;6.03;4.15;;;;;;;;;;4453438;32;20212;-55
2021/08/22 05:30:03;;;;;;;6.53;4.25;;;;;;;;;;4455104;32;20232;-55
2021/08/22 05:32:29;;;;;;;14.98;5.05;;;;;;;;;;4462586;32;20317;-55
2021/08/22 05:34:55;;;;;;;7.65;5.10;;;;;;;;;;4456333;32;20235;-56
2021/08/22 05:37:20;;;;;;;6.05;4.95;;;;;;;;;;4461864;32;20279;-55
2021/08/22 05:39:46;;;;;;;5.82;4.62;;;;;;;;;;4459105;32;20259;-56
2021/08/22 05:42:11;;;;;;;6.85;4.78;;;;;;;;;;4455807;32;20756;-56
2021/08/22 05:44:37;;;;;;;5.97;4.45;;;;;;;;;;4461382;32;20750;-55
2021/08/22 05:47:02;;;;;;;7.03;4.28;;;;;;;;;;4461694;32;20287;-55
2021/08/22 05:49:28;;;;;;;10.85;4.80;;;;;;;;;;4461816;32;20631;-54
2021/08/22 05:51:54;;;;;;;5.75;4.95;;;;;;;;;;4459483;32;20220;-55
2021/08/22 05:54:19;;;;;;;5.07;4.40;;;;;;;;;;4445903;32;20318;-55
2021/08/22 05:56:45;;;;;;;7.43;4.93;;;;;;;;;;4445606;32;20595;-56
2021/08/22 05:59:10;;;;;;;5.93;4.50;;;;;;;;;;4461933;32;20852;-56
2021/08/22 06:01:36;;;;;;;5.97;4.90;;;;;;;;;;4461752;32;20271;-56
2021/08/22 06:04:01;;;;;;;6.07;4.68;;;;;;;;;;4462111;32;20307;-55
2021/08/22 06:06:27;;;;;;;5.78;4.12;;;;;;;;;;4458304;32;20679;-56
2021/08/22 06:08:53;;;;;;;8.18;5.80;;;;;;;;;;4455181;32;20645;-56
2021/08/22 06:11:18;;;;;;;5.95;4.75;;;;;;;;;;4458401;32;20408;-55
2021/08/22 06:13:44;;;;;;;9.50;5.18;;;;;;;;;;4460716;32;20238;-55
2021/08/22 06:16:09;;;;;;;7.55;4.87;;;;;;;;;;4461770;32;20283;-56
2021/08/22 06:18:35;;;;;;;7.90;5.55;;;;;;;;;;4459918;32;20236;-55
2021/08/22 06:21:00;;;;;;;17.55;4.90;;;;;;;;;;4456691;32;20270;-56
2021/08/22 06:23:26;;;;;;;5.45;4.95;;;;;;;;;;4448854;32;20209;-55
2021/08/22 06:25:51;;;;;;;5.60;4.25;;;;;;;;;;4448096;32;20279;-55
2021/08/22 06:28:17;;;;;;;5.68;4.00;;;;;;;;;;4449235;32;20205;-55
2021/08/22 06:30:43;;;;;;;7.50;5.03;;;;;;;;;;4447433;32;20287;-56
2021/08/22 06:33:09;;;;;;;7.18;4.65;;;;;;;;;;4457163;32;20236;-55
2021/08/22 06:35:35;;;;;;;6.87;4.78;;;;;;;;;;4454627;32;20318;-55
2021/08/22 06:38:00;;;;;;;9.77;4.78;;;;;;;;;;4448341;32;20751;-55
2021/08/22 06:40:26;;;;;;;7.30;4.78;;;;;;;;;;4448711;32;20609;-54
2021/08/22 06:42:51;;;;;;;7.12;4.20;;;;;;;;;;4449013;32;20439;-55
2021/08/22 06:45:17;;;;;;;6.75;4.87;;;;;;;;;;4448348;32;20289;-55
2021/08/22 06:47:42;;;;;;;6.00;4.30;;;;;;;;;;4448461;32;20756;-56
2021/08/22 06:50:08;;;;;;;6.87;4.68;;;;;;;;;;4446483;32;20244;-55
2021/08/22 06:52:33;;;;;;;4.43;3.83;;;;;;;;;;4448212;32;20276;-55
2021/08/22 06:54:59;;;;;;;8.52;4.95;;;;;;;;;;4447415;32;20934;-56
2021/08/22 06:57:24;;;;;;;5.03;4.53;;;;;;;;;;4458120;32;20279;-56
2021/08/22 06:59:50;;;;;;;5.60;4.62;;;;;;;;;;4431128;32;20228;-55
2021/08/22 07:02:17;;;;;;;12.65;4.80;;;;;;;;;;4448488;32;20433;-56
2021/08/22 07:04:42;;;;;;;11.48;6.28;;;;;;;;;;4446161;32;20800;-56
2021/08/22 07:07:08;;;;;;;5.07;3.92;;;;;;;;;;4459440;32;20279;-55
2021/08/22 07:09:33;;;;;;;14.45;5.30;;;;;;;;;;4459404;32;20251;-56
2021/08/22 07:11:59;;;;;;;7.50;4.85;;;;;;;;;;4448169;32;20924;-55
2021/08/22 07:14:24;;;;;;;7.43;4.55;;;;;;;;;;4447874;32;20526;-56
2021/08/22 07:16:50;;;;;;;13.15;5.07;;;;;;;;;;4447114;32;20408;-56
2021/08/22 07:19:15;;;;;;;5.28;4.53;;;;;;;;;;4448294;32;20255;-56
2021/08/22 07:21:41;;;;;;;6.97;4.15;;;;;;;;;;4453643;32;20409;-55
2021/08/22 07:24:07;;;;;;;5.60;4.60;;;;;;;;;;4464581;32;20216;-55
2021/08/22 07:26:32;;;;;;;8.40;4.62;;;;;;;;;;4461464;32;20235;-55
2021/08/22 07:28:58;;;;;;;5.50;4.45;;;;;;;;;;4464370;32;20256;-55
2021/08/22 07:31:24;;;;;;;12.00;4.75;;;;;;;;;;4463068;32;20240;-55
2021/08/22 07:33:49;;;;;;;6.25;4.37;;;;;;;;;;4463565;32;20331;-55
2021/08/22 07:36:15;;;;;;;5.62;4.37;;;;;;;;;;4462411;32;20272;-56
2021/08/22 07:38:40;;;;;;;6.25;3.87;;;;;;;;;;4461765;32;20220;-55
2021/08/22 07:41:06;;;;;;;8.70;5.30;;;;;;;;;;4461475;32;20867;-56
2021/08/22 07:43:32;;;;;;;9.32;4.90;;;;;;;;;;4462076;32;20274;-56
2021/08/22 07:45:58;;;;;;;6.65;4.80;;;;;;;;;;4461131;32;20655;-56
2021/08/22 07:48:23;;;;;;;8.48;4.75;;;;;;;;;;4463092;32;20254;-56
2021/08/22 07:50:49;;;;;;;5.62;4.12;;;;;;;;;;4454497;32;20303;-55
2021/08/22 07:53:16;;;;;;;5.87;4.28;;;;;;;;;;4447218;32;20609;-55
2021/08/22 07:55:42;;;;;;;9.10;4.82;;;;;;;;;;4455437;32;20322;-56
2021/08/22 07:58:08;;;;;;;13.05;5.15;;;;;;;;;;4463725;32;20240;-56
2021/08/22 08:00:34;;;;;;;6.90;4.82;;;;;;;;;;4462389;32;20208;-55
2021/08/22 08:02:59;;;;;;;5.72;4.22;;;;;;;;;;4463201;32;20877;-54
2021/08/22 08:05:25;;;;;;;6.55;3.92;;;;;;;;;;4457599;32;20200;-55
2021/08/22 08:07:50;;;;;;;7.53;4.30;;;;;;;;;;4461896;32;20289;-55
2021/08/22 08:10:17;;;;;;;6.50;4.50;;;;;;;;;;4457344;32;20285;-56
2021/08/22 08:12:44;;;;;;;5.25;4.03;;;;;;;;;;4454789;32;20605;-56
2021/08/22 08:15:09;;;;;;;11.45;4.35;;;;;;;;;;4462559;32;20348;-56
2021/08/22 08:17:35;;;;;;;8.35;4.25;;;;;;;;;;4463680;32;20271;-58
2021/08/22 08:20:00;;;;;;;4.93;4.12;;;;;;;;;;4460038;32;20282;-55
2021/08/22 08:22:26;;;;;;;7.10;4.37;;;;;;;;;;4462366;32;20465;-55
2021/08/22 08:24:52;;;;;;;5.37;4.28;;;;;;;;;;4462211;32;20224;-55
2021/08/22 08:27:17;;;;;;;6.22;4.07;;;;;;;;;;4462225;32;20406;-55
2021/08/22 08:29:43;;;;;;;4.28;3.53;;;;;;;;;;4462145;32;20234;-55
2021/08/22 08:32:08;;;;;;;5.78;3.83;;;;;;;;;;4460766;32;20636;-55
2021/08/22 08:34:34;;;;;;;5.00;3.70;;;;;;;;;;4460915;32;20616;-56
2021/08/22 08:37:00;;;;;;;11.93;3.78;;;;;;;;;;4453935;32;20311;-57
2021/08/22 08:39:25;;;;;;;4.87;3.65;;;;;;;;;;4455036;32;20223;-56
2021/08/22 08:41:51;;;;;;;4.10;3.35;;;;;;;;;;4447919;32;20268;-55
2021/08/22 08:44:16;;;;;;;5.32;3.03;;;;;;;;;;4460289;32;20216;-56
2021/08/22 08:46:50;;;;;;;4.07;2.62;;;;;;;;;;4455256;32;20258;-56
2021/08/22 08:49:38;;;;;;;4.72;2.55;;;;;;;;;;4456946;32;20231;-56
2021/08/22 08:52:30;;;;;;;6.03;2.80;;;;;;;;;;4460988;32;20228;-56
2021/08/22 08:55:06;;;;;;;4.12;2.67;;;;;;;;;;4433019;32;20294;-55
2021/08/22 08:57:32;;;;;;;3.65;2.30;;;;;;;;;;4462572;32;20204;-55
2021/08/22 08:59:57;;;;;;;3.97;2.40;;;;;;;;;;4459850;32;20549;-55
2021/08/22 09:02:23;;;;;;;3.12;2.30;;;;;;;;;;4459793;32;20274;-56
2021/08/22 09:04:57;;;;;;;4.32;2.70;;;;;;;;;;4462311;32;20267;-56
2021/08/22 09:08:04;;;;;;;3.33;2.35;;;;;;;;;;4463091;32;20306;-56
2021/08/22 09:10:41;;;;;;;4.15;2.83;;;;;;;;;;4461720;32;20240;-56
2021/08/22 09:13:28;;;;;;;5.15;2.67;;;;;;;;;;4461283;32;20243;-56
2021/08/22 09:15:59;;;;;;;3.50;2.20;;;;;;;;;;4462647;32;20586;-55
2021/08/22 09:19:02;;;;;;;3.62;2.80;;;;;;;;;;4462715;32;20212;-56
2021/08/22 09:22:01;;;;;;;4.50;2.72;;;;;;;;;;4461702;32;20404;-55
2021/08/22 09:25:04;;;;;;;3.97;2.97;;;;;;;;;;4460015;32;20227;-55
2021/08/22 09:27:47;;;;;;;6.10;2.90;;;;;;;;;;4462102;32;20470;-55
2021/08/22 09:30:31;;;;;;;5.82;3.22;;;;;;;;;;4451965;32;20291;-57
2021/08/22 09:33:34;;;;;;;4.62;3.00;;;;;;;;;;4459063;32;20236;-56
2021/08/22 09:36:24;;;;;;;6.85;3.10;;;;;;;;;;4457037;32;20620;-56
2021/08/22 09:39:26;;;;;;;3.85;2.85;;;;;;;;;;4461284;32;20318;-56
2021/08/22 09:42:29;;;;;;;4.68;3.00;;;;;;;;;;4460745;32;20283;-56
2021/08/22 09:45:28;;;;;;;5.28;3.08;;;;;;;;;;4459217;32;20208;-56
2021/08/22 09:48:32;;;;;;;4.90;3.08;;;;;;;;;;4456620;32;20252;-56
2021/08/22 09:51:16;;;;;;;4.55;3.17;;;;;;;;;;4411091;32;20295;-57
2021/08/22 09:54:00;;;;;;;5.25;3.10;;;;;;;;;;4465328;32;20325;-56
2021/08/22 09:57:03;;;;;;;5.22;3.37;;;;;;;;;;4453040;32;20507;-56
2021/08/22 09:59:40;;;;;;;3.78;3.00;;;;;;;;;;4465106;32;20243;-56
2021/08/22 10:02:30;;;;;;;4.07;3.67;;;;;;;;;;4465257;32;20196;-56
2021/08/22 10:05:14;;;;;;;6.78;3.65;;;;;;;;;;4460869;32;20267;-55
2021/08/22 10:08:08;;;;;;;4.37;3.83;;;;;;;;;;4465241;32;20304;-55
2021/08/22 10:10:44;;;;;;;5.28;3.53;;;;;;;;;;4464086;32;20228;-55
2021/08/22 10:13:10;;;;;;;6.35;3.65;;;;;;;;;;4464789;32;20228;-56
2021/08/22 10:15:35;;;;;;;7.75;3.20;;;;;;;;;;4465065;32;20613;-56
2021/08/22 10:18:01;;;;;;;7.10;3.70;;;;;;;;;;4451688;32;20612;-56
2021/08/22 10:20:42;;;;;;;3.95;3.22;;;;;;;;;;4454564;32;20229;-56
2021/08/22 10:23:43;;;;;;;4.05;3.33;;;;;;;;;;4463436;32;20288;-56
2021/08/22 10:26:10;;;;;;;5.15;3.25;;;;;;;;;;4415423;32;20209;-56
2021/08/22 10:28:44;;;;;;;4.87;3.37;;;;;;;;;;4449937;32;20248;-56
2021/08/22 10:31:14;;;;;;;4.95;3.37;;;;;;;;;;4464300;32;20298;-57
2021/08/22 10:34:21;;;;;;;4.93;3.37;;;;;;;;;;4452490;32;20267;-56
2021/08/22 10:36:47;;;;;;;5.70;3.33;;;;;;;;;;4424940;32;20655;-54
2021/08/22 10:39:29;;;;;;;7.50;3.40;;;;;;;;;;4428542;32;20731;-55
2021/08/22 10:41:55;;;;;;;9.45;4.37;;;;;;;;;;4442198;32;20403;-56
2021/08/22 10:44:32;;;;;;;7.05;3.97;;;;;;;;;;4452513;32;20377;-56
2021/08/22 10:46:59;;;;;;;5.30;3.90;;;;;;;;;;4463163;32;20822;-56
2021/08/22 10:49:52;;;;;;;4.03;3.20;;;;;;;;;;4463971;32;20238;-56
2021/08/22 10:52:28;;;;;;;6.55;4.05;;;;;;;;;;4463439;32;20208;-56
2021/08/22 10:55:15;;;;;;;8.13;3.95;;;;;;;;;;4463208;32;20370;-55
2021/08/22 10:57:50;;;;;;;4.43;3.70;;;;;;;;;;4457688;32;20354;-55
2021/08/22 11:00:22;;;;;;;4.80;3.95;;;;;;;;;;4463902;32;20215;-55
2021/08/22 11:02:49;;;;;;;5.85;3.95;;;;;;;;;;4463043;32;20207;-57
2021/08/22 11:05:34;;;;;;;4.75;3.50;;;;;;;;;;4463392;32;20295;-59
2021/08/22 11:08:24;;;;;;;5.12;3.40;;;;;;;;;;4453135;32;20594;-56
2021/08/22 11:10:59;;;;;;;6.10;3.05;;;;;;;;;;4459849;32;20276;-56
2021/08/22 11:13:26;;;;;;;4.75;3.10;;;;;;;;;;4464397;32;20779;-58
2021/08/22 11:15:52;;;;;;;8.18;4.20;;;;;;;;;;4455736;32;20277;-58
2021/08/22 11:18:18;;;;;;;4.35;3.10;;;;;;;;;;4459640;32;20308;-59
2021/08/22 11:20:44;;;;;;;4.30;3.50;;;;;;;;;;4448582;32;20319;-59
2021/08/22 11:23:17;;;;;;;5.40;3.85;;;;;;;;;;4463506;32;20286;-59
2021/08/22 11:25:44;;;;;;;4.12;3.15;;;;;;;;;;4463552;32;20244;-58
2021/08/22 11:28:15;;;;;;;3.87;2.80;;;;;;;;;;4451842;32;20254;-59
2021/08/22 11:30:42;;;;;;;5.05;3.33;;;;;;;;;;4461232;32;20204;-59
2021/08/22 11:33:09;;;;;;;5.72;3.47;;;;;;;;;;4461505;32;20434;-58
2021/08/22 11:35:39;;;;;;;5.75;3.37;;;;;;;;;;4462894;32;20243;-59
2021/08/22 11:38:05;;;;;;;4.57;2.95;;;;;;;;;;4461374;32;20343;-59
2021/08/22 11:40:32;;;;;;;4.47;2.97;;;;;;;;;;4461379;32;20320;-60
2021/08/22 11:43:03;;;;;;;5.97;3.10;;;;;;;;;;4451644;32;20672;-59
2021/08/22 11:45:33;;;;;;;3.35;2.40;;;;;;;;;;4448929;32;20290;-59
2021/08/22 11:47:59;;;;;;;5.10;3.15;;;;;;;;;;4463192;32;20258;-59
2021/08/22 11:50:29;;;;;;;5.30;3.05;;;;;;;;;;4462354;32;20275;-59
2021/08/22 11:52:58;;;;;;;4.15;2.95;;;;;;;;;;4462304;32;20288;-59
2021/08/22 11:55:31;;;;;;;3.92;2.83;;;;;;;;;;4462698;32;20216;-59
2021/08/22 11:58:17;;;;;;;4.12;2.92;;;;;;;;;;4452204;32;20738;-59
2021/08/22 12:00:48;;;;;;;3.58;2.85;;;;;;;;;;4445218;32;20223;-58
2021/08/22 12:03:24;;;;;;;4.15;2.85;;;;;;;;;;4442585;32;20348;-58
2021/08/22 12:06:07;;;;;;;3.00;2.60;;;;;;;;;;4463335;32;20326;-58
2021/08/22 12:08:34;;;;;;;3.72;2.70;;;;;;;;;;4457965;32;20670;-56
2021/08/22 12:11:13;;;;;;;3.80;3.20;;;;;;;;;;4460929;32;20325;-57
2021/08/22 12:13:43;;;;;;;4.30;2.83;;;;;;;;;;4463411;32;20242;-56
2021/08/22 12:16:32;;;;;;;5.40;2.92;;;;;;;;;;4463055;32;20600;-56
2021/08/22 12:19:35;;;;;;;8.57;2.97;;;;;;;;;;4462161;32;20292;-56
2021/08/22 12:22:09;;;;;;;4.32;2.95;;;;;;;;;;4376216;32;20787;-54
2021/08/22 12:24:34;;;;;;;4.68;3.00;;;;;;;;;;4417604;32;20351;-57
2021/08/22 12:27:02;;;;;;;2.80;2.17;;;;;;;;;;4448489;32;20729;-58
2021/08/22 12:29:32;;;;;;;3.25;2.30;;;;;;;;;;4450866;32;20224;-58
2021/08/22 12:32:12;;;;;;;3.62;2.83;;;;;;;;;;4453826;32;20592;-58
2021/08/22 12:34:38;;;;;;;4.35;2.28;;;;;;;;;;4457945;32;20334;-59
2021/08/22 12:37:11;;;;;;;7.12;2.47;;;;;;;;;;4432188;32;20666;-58
2021/08/22 12:39:37;;;;;;;3.12;2.83;;;;;;;;;;4449949;32;20224;-57
2021/08/22 12:42:02;;;;;;;3.15;2.45;;;;;;;;;;4454892;32;20317;-59
2021/08/22 12:44:28;;;;;;;7.20;2.62;;;;;;;;;;4456460;32;20276;-58
2021/08/22 12:46:54;;;;;;;2.87;2.30;;;;;;;;;;4456765;32;20287;-58
2021/08/22 12:49:21;;;;;;;3.47;2.87;;;;;;;;;;4446926;32;20329;-57
2021/08/22 12:51:49;;;;;;;4.95;3.08;;;;;;;;;;4452966;32;20298;-58
2021/08/22 12:54:14;;;;;;;2.90;2.25;;;;;;;;;;4443037;32;20286;-58
2021/08/22 12:56:40;;;;;;;3.58;2.40;;;;;;;;;;4433374;32;20367;-58
2021/08/22 12:59:05;;;;;;;2.78;2.20;;;;;;;;;;4447752;32;20237;-58
2021/08/22 13:01:31;;;;;;;4.45;2.90;;;;;;;;;;4457599;32;20299;-58
2021/08/22 13:03:57;;;;;;;5.03;2.75;;;;;;;;;;4439543;32;20236;-56
2021/08/22 13:06:24;;;;;;;4.07;2.25;;;;;;;;;;4449226;32;20367;-56
2021/08/22 13:08:49;;;;;;;6.12;2.55;;;;;;;;;;4449911;32;20243;-57
2021/08/22 13:11:16;;;;;;;3.03;2.10;;;;;;;;;;4447681;32;20306;-57
2021/08/22 13:13:41;;;;;;;10.02;2.70;;;;;;;;;;4457825;32;20254;-56
2021/08/22 13:16:08;;;;;;;5.05;2.62;;;;;;;;;;4459142;32;20710;-57
2021/08/22 13:18:34;;;;;;;4.68;3.15;;;;;;;;;;4429919;32;20338;-57
2021/08/22 13:21:01;;;;;;;3.75;2.65;;;;;;;;;;4452094;32;20402;-57
2021/08/22 13:23:27;;;;;;;3.20;2.22;;;;;;;;;;4453018;32;20272;-56
2021/08/22 13:25:53;;;;;;;3.87;2.45;;;;;;;;;;4465598;32;20283;-57
2021/08/22 13:28:18;;;;;;;3.30;2.47;;;;;;;;;;4465769;32;20314;-57
2021/08/22 13:30:44;;;;;;;3.05;2.47;;;;;;;;;;4465202;32;20278;-58
2021/08/22 13:33:10;;;;;;;4.50;2.58;;;;;;;;;;4452650;32;20220;-56
2021/08/22 13:35:36;;;;;;;4.45;2.67;;;;;;;;;;4460653;32;20246;-56
2021/08/22 13:38:01;;;;;;;3.72;2.65;;;;;;;;;;4450034;32;20612;-57
2021/08/22 13:40:27;;;;;;;3.35;2.28;;;;;;;;;;4465277;32;20659;-57
2021/08/22 13:42:53;;;;;;;5.97;2.85;;;;;;;;;;4463837;32;20279;-57
2021/08/22 13:45:18;;;;;;;3.20;2.53;;;;;;;;;;4454551;32;20275;-57
2021/08/22 13:47:44;;;;;;;3.58;2.30;;;;;;;;;;4460816;32;20278;-57
2021/08/22 13:50:09;;;;;;;5.70;2.97;;;;;;;;;;4464625;32;20354;-57
2021/08/22 13:52:35;;;;;;;3.00;2.50;;;;;;;;;;4453854;32;20323;-57
2021/08/22 13:55:00;;;;;;;4.80;2.70;;;;;;;;;;4461201;32;20247;-57
2021/08/22 13:57:26;;;;;;;3.78;2.55;;;;;;;;;;4465299;32;20290;-57
2021/08/22 13:59:51;;;;;;;3.08;2.10;;;;;;;;;;4464403;32;20530;-57
2021/08/22 14:02:17;;;;;;;4.20;2.47;;;;;;;;;;4458991;32;20771;-57
2021/08/22 14:04:42;;;;;;;3.67;2.62;;;;;;;;;;4465355;32;20696;-57
2021/08/22 14:07:07;;;;;;;5.07;2.50;;;;;;;;;;4456971;32;20411;-56
2021/08/22 14:09:33;;;;;;;3.47;2.65;;;;;;;;;;4459965;32;20220;-56
2021/08/22 14:11:59;;;;;;;2.90;2.60;;;;;;;;;;4457402;32;20399;-56
2021/08/22 14:14:28;;;;;;;5.07;2.92;;;;;;;;;;4456631;32;20661;-56
2021/08/22 14:16:53;;;;;;;3.70;3.10;;;;;;;;;;4458762;32;20216;-56
2021/08/22 14:19:19;;;;;;;3.20;2.45;;;;;;;;;;4456747;32;20282;-56
2021/08/22 14:21:44;;;;;;;3.95;3.00;;;;;;;;;;4456442;32;20378;-56
2021/08/22 14:24:10;;;;;;;3.37;2.72;;;;;;;;;;4464536;32;20272;-56
2021/08/22 14:26:35;;;;;;;3.87;2.72;;;;;;;;;;4465147;32;20829;-56
2021/08/22 14:29:00;;;;;;;5.03;2.60;;;;;;;;;;4463044;32;20696;-56
2021/08/22 14:31:26;;;;;;;2.70;2.37;;;;;;;;;;4460720;32;20527;-55
2021/08/22 14:33:51;;;;;;;4.45;3.58;;;;;;;;;;4459196;32;20248;-55
2021/08/22 14:36:17;;;;;;;9.25;3.42;;;;;;;;;;4463686;32;20674;-56
2021/08/22 14:38:42;;;;;;;4.82;3.58;;;;;;;;;;4464348;32;20224;-56
2021/08/22 14:41:09;;;;;;;6.87;2.67;;;;;;;;;;4462610;32;20647;-56
2021/08/22 14:43:34;;;;;;;7.45;2.78;;;;;;;;;;4461906;32;20753;-56
2021/08/22 14:46:00;;;;;;;4.65;2.85;;;;;;;;;;4464040;32;20310;-56
2021/08/22 14:48:25;;;;;;;5.35;2.70;;;;;;;;;;4465484;32;20227;-56
2021/08/22 14:50:51;;;;;;;2.92;2.62;;;;;;;;;;4461572;32;20255;-56
2021/08/22 14:53:17;;;;;;;4.40;2.75;;;;;;;;;;4462872;32;20297;-56